PABI/DJN METAR and TAF weather

Enter ICAO airport designator
Station Type Date Time Source
PABI METAR 2022/01/19 18:53 UTC NOAA

PABI 191853Z 11016KT 10SM OVC110 M13/M17 A2965 RMK AO2 PK WND 12027/1801 SLP082 T11281172


Station Type Date Time Source
PABI Decoded METAR 2022/01/19 18:53 UTC NOAA

ALLEN ARMY AIRFIELD, AK, United States (PABI) 64-00N 145-43W 391M
Jan 19, 2022 - 01:53 PM EST / 2022.01.19 1853 UTC
Wind: from the ESE (110 degrees) at 18 MPH (16 KT):0
Visibility: 10 mile(s):0
Sky conditions: overcast
Temperature: 9.0 F (-12.8 C)
Windchill: -9 F (-23 C):2
Dew Point: 1.0 F (-17.2 C)
Relative Humidity: 69%
Pressure (altimeter): 29.65 in. Hg (1004 hPa)
ob: PABI 191853Z 11016KT 10SM OVC110 M13/M17 A2965 RMK AO2 PK WND 12027/1801 SLP082 T11281172
cycle: 19

Station Type Date Time Source
PABI TAF 2022/01/19 15:31 UTC NOAA

TAF
AMD PABI 191519Z 1915/2020 11012G18KT 9999 FEW060 SCT085 BKN120 510023 QNH2951INS
BECMG 2000/2001 VRB06KT 9999 FEW015 SCT020 BKN030 QNH2948INS
BECMG 2001/2002 VRB06KT 9999 BKN007 OVC015 620074 QNH2946INS
BECMG 2002/2003 VRB06KT 9000 -SN SCT007 OVC015 630154 QNH2941INS TXM11/2004Z TNM13/1917Z

Example: see airport list